sensor_id;sensor_type;location;lat;lon;timestamp;temperature;humidity
71096;DHT22;58753;49.440;11.126;2023-09-30T00:00:42;17.32;75.78
71096;DHT22;58753;49.440;11.126;2023-09-30T00:03:08;17.31;75.88
71096;DHT22;58753;49.440;11.126;2023-09-30T00:05:33;17.24;76.13
71096;DHT22;58753;49.440;11.126;2023-09-30T00:07:58;17.24;76.19
71096;DHT22;58753;49.440;11.126;2023-09-30T00:10:24;17.20;76.36
71096;DHT22;58753;49.440;11.126;2023-09-30T00:12:49;17.15;76.43
71096;DHT22;58753;49.440;11.126;2023-09-30T00:15:15;17.13;76.62
71096;DHT22;58753;49.440;11.126;2023-09-30T00:17:40;17.10;76.71
71096;DHT22;58753;49.440;11.126;2023-09-30T00:20:06;17.11;76.89
71096;DHT22;58753;49.440;11.126;2023-09-30T00:22:32;17.06;76.99
71096;DHT22;58753;49.440;11.126;2023-09-30T00:24:58;17.03;77.02
71096;DHT22;58753;49.440;11.126;2023-09-30T00:27:23;17.00;77.19
71096;DHT22;58753;49.440;11.126;2023-09-30T00:29:49;16.95;77.23
71096;DHT22;58753;49.440;11.126;2023-09-30T00:32:14;16.90;77.49
71096;DHT22;58753;49.440;11.126;2023-09-30T00:34:39;16.90;77.70
71096;DHT22;58753;49.440;11.126;2023-09-30T00:37:05;16.88;77.77
71096;DHT22;58753;49.440;11.126;2023-09-30T00:39:32;16.84;77.91
71096;DHT22;58753;49.440;11.126;2023-09-30T00:41:58;16.87;78.06
71096;DHT22;58753;49.440;11.126;2023-09-30T00:44:25;16.84;78.11
71096;DHT22;58753;49.440;11.126;2023-09-30T00:46:51;16.83;78.27
71096;DHT22;58753;49.440;11.126;2023-09-30T00:49:17;16.80;78.40
71096;DHT22;58753;49.440;11.126;2023-09-30T00:51:44;16.79;78.55
71096;DHT22;58753;49.440;11.126;2023-09-30T00:54:11;16.79;78.65
71096;DHT22;58753;49.440;11.126;2023-09-30T00:56:44;16.83;78.90
71096;DHT22;58753;49.440;11.126;2023-09-30T00:59:14;16.84;78.85
71096;DHT22;58753;49.440;11.126;2023-09-30T01:01:44;16.85;78.88
71096;DHT22;58753;49.440;11.126;2023-09-30T01:04:14;16.87;78.99
71096;DHT22;58753;49.440;11.126;2023-09-30T01:06:40;16.90;79.02
71096;DHT22;58753;49.440;11.126;2023-09-30T01:09:07;16.90;79.11
71096;DHT22;58753;49.440;11.126;2023-09-30T01:11:32;16.90;79.08
71096;DHT22;58753;49.440;11.126;2023-09-30T01:13:58;16.91;79.09
71096;DHT22;58753;49.440;11.126;2023-09-30T01:16:24;16.91;79.08
71096;DHT22;58753;49.440;11.126;2023-09-30T01:18:49;16.93;79.20
71096;DHT22;58753;49.440;11.126;2023-09-30T01:21:15;16.94;79.20
71096;DHT22;58753;49.440;11.126;2023-09-30T01:23:41;16.93;79.17
71096;DHT22;58753;49.440;11.126;2023-09-30T01:26:10;16.95;79.16
71096;DHT22;58753;49.440;11.126;2023-09-30T01:28:37;16.94;79.20
71096;DHT22;58753;49.440;11.126;2023-09-30T01:31:03;16.95;79.19
71096;DHT22;58753;49.440;11.126;2023-09-30T01:33:30;16.97;79.28
71096;DHT22;58753;49.440;11.126;2023-09-30T01:35:56;16.97;79.20
71096;DHT22;58753;49.440;11.126;2023-09-30T01:38:21;16.97;79.22
71096;DHT22;58753;49.440;11.126;2023-09-30T01:40:47;16.99;79.32
71096;DHT22;58753;49.440;11.126;2023-09-30T01:43:16;16.99;79.21
71096;DHT22;58753;49.440;11.126;2023-09-30T01:45:42;16.99;79.10
71096;DHT22;58753;49.440;11.126;2023-09-30T01:48:09;17.00;79.28
71096;DHT22;58753;49.440;11.126;2023-09-30T01:50:38;16.95;79.32
71096;DHT22;58753;49.440;11.126;2023-09-30T01:53:04;16.97;79.34
71096;DHT22;58753;49.440;11.126;2023-09-30T01:55:32;16.94;79.33
71096;DHT22;58753;49.440;11.126;2023-09-30T01:57:57;16.97;79.40
71096;DHT22;58753;49.440;11.126;2023-09-30T02:00:22;16.94;79.34
71096;DHT22;58753;49.440;11.126;2023-09-30T02:02:48;16.91;79.49
71096;DHT22;58753;49.440;11.126;2023-09-30T02:05:13;16.95;79.54
71096;DHT22;58753;49.440;11.126;2023-09-30T02:07:39;16.93;79.57
71096;DHT22;58753;49.440;11.126;2023-09-30T02:10:05;16.91;79.65
71096;DHT22;58753;49.440;11.126;2023-09-30T02:12:30;16.91;79.71
71096;DHT22;58753;49.440;11.126;2023-09-30T02:14:58;16.91;79.78
71096;DHT22;58753;49.440;11.126;2023-09-30T02:17:23;16.93;79.77
71096;DHT22;58753;49.440;11.126;2023-09-30T02:19:49;16.93;79.77
71096;DHT22;58753;49.440;11.126;2023-09-30T02:22:15;16.93;79.89
71096;DHT22;58753;49.440;11.126;2023-09-30T02:24:40;16.94;80.00
71096;DHT22;58753;49.440;11.126;2023-09-30T02:27:06;16.93;80.06
71096;DHT22;58753;49.440;11.126;2023-09-30T02:29:31;16.93;80.03
71096;DHT22;58753;49.440;11.126;2023-09-30T02:31:57;16.94;80.06
71096;DHT22;58753;49.440;11.126;2023-09-30T02:34:23;16.95;80.03
71096;DHT22;58753;49.440;11.126;2023-09-30T02:36:49;16.97;80.00
71096;DHT22;58753;49.440;11.126;2023-09-30T02:39:15;16.94;80.14
71096;DHT22;58753;49.440;11.126;2023-09-30T02:41:42;16.94;80.21
71096;DHT22;58753;49.440;11.126;2023-09-30T02:44:07;16.94;80.29
71096;DHT22;58753;49.440;11.126;2023-09-30T02:46:33;16.95;80.43
71096;DHT22;58753;49.440;11.126;2023-09-30T02:49:01;16.99;80.56
71096;DHT22;58753;49.440;11.126;2023-09-30T02:51:27;17.00;80.72
71096;DHT22;58753;49.440;11.126;2023-09-30T02:53:52;16.99;80.70
71096;DHT22;58753;49.440;11.126;2023-09-30T02:56:17;16.94;81.23
71096;DHT22;58753;49.440;11.126;2023-09-30T02:58:45;16.91;81.52
71096;DHT22;58753;49.440;11.126;2023-09-30T03:01:14;16.87;81.78
71096;DHT22;58753;49.440;11.126;2023-09-30T03:03:41;16.81;81.95
71096;DHT22;58753;49.440;11.126;2023-09-30T03:06:09;16.76;82.46
71096;DHT22;58753;49.440;11.126;2023-09-30T03:08:35;16.74;82.48
71096;DHT22;58753;49.440;11.126;2023-09-30T03:11:01;16.73;82.69
71096;DHT22;58753;49.440;11.126;2023-09-30T03:13:27;16.70;82.81
71096;DHT22;58753;49.440;11.126;2023-09-30T03:15:52;16.67;83.01
71096;DHT22;58753;49.440;11.126;2023-09-30T03:18:18;16.67;83.29
71096;DHT22;58753;49.440;11.126;2023-09-30T03:20:47;16.63;83.60
71096;DHT22;58753;49.440;11.126;2023-09-30T03:23:15;16.56;84.03
71096;DHT22;58753;49.440;11.126;2023-09-30T03:25:41;16.48;84.14
71096;DHT22;58753;49.440;11.126;2023-09-30T03:28:07;16.39;84.53
71096;DHT22;58753;49.440;11.126;2023-09-30T03:30:33;16.36;84.91
71096;DHT22;58753;49.440;11.126;2023-09-30T03:32:59;16.29;85.39
71096;DHT22;58753;49.440;11.126;2023-09-30T03:35:25;16.19;85.16
71096;DHT22;58753;49.440;11.126;2023-09-30T03:37:51;16.02;85.29
71096;DHT22;58753;49.440;11.126;2023-09-30T03:40:16;15.87;85.37
71096;DHT22;58753;49.440;11.126;2023-09-30T03:42:46;15.78;85.63
71096;DHT22;58753;49.440;11.126;2023-09-30T03:45:14;15.65;85.88
71096;DHT22;58753;49.440;11.126;2023-09-30T03:47:41;15.58;86.00
71096;DHT22;58753;49.440;11.126;2023-09-30T03:50:07;15.55;86.48
71096;DHT22;58753;49.440;11.126;2023-09-30T03:52:40;15.53;86.66
71096;DHT22;58753;49.440;11.126;2023-09-30T03:55:10;15.51;86.79
71096;DHT22;58753;49.440;11.126;2023-09-30T03:57:37;15.54;86.67
71096;DHT22;58753;49.440;11.126;2023-09-30T04:00:03;15.38;86.54
71096;DHT22;58753;49.440;11.126;2023-09-30T04:02:32;15.31;86.58
71096;DHT22;58753;49.440;11.126;2023-09-30T04:04:57;15.24;86.79
71096;DHT22;58753;49.440;11.126;2023-09-30T04:07:24;15.19;86.87
71096;DHT22;58753;49.440;11.126;2023-09-30T04:09:54;15.14;86.75
71096;DHT22;58753;49.440;11.126;2023-09-30T04:12:19;15.08;87.03
71096;DHT22;58753;49.440;11.126;2023-09-30T04:14:45;15.07;87.18
71096;DHT22;58753;49.440;11.126;2023-09-30T04:17:10;15.03;87.11
71096;DHT22;58753;49.440;11.126;2023-09-30T04:19:36;15.00;87.33
71096;DHT22;58753;49.440;11.126;2023-09-30T04:22:01;14.99;87.19
71096;DHT22;58753;49.440;11.126;2023-09-30T04:24:26;14.93;87.07
71096;DHT22;58753;49.440;11.126;2023-09-30T04:26:53;14.86;87.43
71096;DHT22;58753;49.440;11.126;2023-09-30T04:29:22;14.86;87.63
71096;DHT22;58753;49.440;11.126;2023-09-30T04:31:48;14.84;87.66
71096;DHT22;58753;49.440;11.126;2023-09-30T04:34:14;14.84;87.73
71096;DHT22;58753;49.440;11.126;2023-09-30T04:36:40;14.79;87.58
71096;DHT22;58753;49.440;11.126;2023-09-30T04:39:05;14.80;87.87
71096;DHT22;58753;49.440;11.126;2023-09-30T04:41:31;14.79;87.64
71096;DHT22;58753;49.440;11.126;2023-09-30T04:43:56;14.75;87.91
71096;DHT22;58753;49.440;11.126;2023-09-30T04:46:22;14.76;88.07
71096;DHT22;58753;49.440;11.126;2023-09-30T04:48:49;14.77;87.91
71096;DHT22;58753;49.440;11.126;2023-09-30T04:51:17;14.76;88.05
71096;DHT22;58753;49.440;11.126;2023-09-30T04:53:44;14.73;87.96
71096;DHT22;58753;49.440;11.126;2023-09-30T04:56:12;14.75;88.04
71096;DHT22;58753;49.440;11.126;2023-09-30T04:58:37;14.75;88.14
71096;DHT22;58753;49.440;11.126;2023-09-30T05:01:03;14.73;88.11
71096;DHT22;58753;49.440;11.126;2023-09-30T05:03:28;14.70;88.05
71096;DHT22;58753;49.440;11.126;2023-09-30T05:05:54;14.69;88.43
71096;DHT22;58753;49.440;11.126;2023-09-30T05:08:24;14.66;88.49
71096;DHT22;58753;49.440;11.126;2023-09-30T05:10:50;14.65;88.49
71096;DHT22;58753;49.440;11.126;2023-09-30T05:13:15;14.62;88.70
71096;DHT22;58753;49.440;11.126;2023-09-30T05:15:41;14.62;88.72
71096;DHT22;58753;49.440;11.126;2023-09-30T05:18:07;14.63;88.75
71096;DHT22;58753;49.440;11.126;2023-09-30T05:20:33;14.62;88.96
71096;DHT22;58753;49.440;11.126;2023-09-30T05:23:02;14.65;88.97
71096;DHT22;58753;49.440;11.126;2023-09-30T05:25:28;14.58;89.05
71096;DHT22;58753;49.440;11.126;2023-09-30T05:27:53;14.55;89.25
71096;DHT22;58753;49.440;11.126;2023-09-30T05:30:19;14.55;89.31
71096;DHT22;58753;49.440;11.126;2023-09-30T05:32:45;14.55;89.35
71096;DHT22;58753;49.440;11.126;2023-09-30T05:35:12;14.52;89.47
71096;DHT22;58753;49.440;11.126;2023-09-30T05:37:42;14.49;89.40
71096;DHT22;58753;49.440;11.126;2023-09-30T05:40:08;14.42;89.56
71096;DHT22;58753;49.440;11.126;2023-09-30T05:42:47;14.41;89.76
71096;DHT22;58753;49.440;11.126;2023-09-30T05:45:15;14.35;89.85
71096;DHT22;58753;49.440;11.126;2023-09-30T05:47:41;14.33;90.26
71096;DHT22;58753;49.440;11.126;2023-09-30T05:50:07;14.35;90.25
71096;DHT22;58753;49.440;11.126;2023-09-30T05:52:34;14.35;90.22
71096;DHT22;58753;49.440;11.126;2023-09-30T05:54:59;14.32;90.40
71096;DHT22;58753;49.440;11.126;2023-09-30T05:57:26;14.32;90.36
71096;DHT22;58753;49.440;11.126;2023-09-30T05:59:51;14.31;90.67
71096;DHT22;58753;49.440;11.126;2023-09-30T06:02:17;14.29;90.53
71096;DHT22;58753;49.440;11.126;2023-09-30T06:04:42;14.25;90.53
71096;DHT22;58753;49.440;11.126;2023-09-30T06:07:08;14.25;90.74
71096;DHT22;58753;49.440;11.126;2023-09-30T06:09:33;14.28;91.05
71096;DHT22;58753;49.440;11.126;2023-09-30T06:11:59;14.28;90.92
71096;DHT22;58753;49.440;11.126;2023-09-30T06:14:28;14.31;90.98
71096;DHT22;58753;49.440;11.126;2023-09-30T06:16:56;14.28;90.96
71096;DHT22;58753;49.440;11.126;2023-09-30T06:19:21;14.26;91.11
71096;DHT22;58753;49.440;11.126;2023-09-30T06:21:47;14.26;91.11
71096;DHT22;58753;49.440;11.126;2023-09-30T06:24:12;14.26;91.07
71096;DHT22;58753;49.440;11.126;2023-09-30T06:26:38;14.31;91.32
71096;DHT22;58753;49.440;11.126;2023-09-30T06:29:03;14.32;91.36
71096;DHT22;58753;49.440;11.126;2023-09-30T06:31:31;14.31;91.22
71096;DHT22;58753;49.440;11.126;2023-09-30T06:33:56;14.32;91.29
71096;DHT22;58753;49.440;11.126;2023-09-30T06:36:23;14.36;91.47
71096;DHT22;58753;49.440;11.126;2023-09-30T06:38:49;14.39;91.54
71096;DHT22;58753;49.440;11.126;2023-09-30T06:41:18;14.45;91.42
71096;DHT22;58753;49.440;11.126;2023-09-30T06:43:45;14.49;91.53
71096;DHT22;58753;49.440;11.126;2023-09-30T06:46:12;14.58;91.60
71096;DHT22;58753;49.440;11.126;2023-09-30T06:48:38;14.61;91.36
71096;DHT22;58753;49.440;11.126;2023-09-30T06:51:05;14.62;91.40
71096;DHT22;58753;49.440;11.126;2023-09-30T06:53:31;14.63;91.32
71096;DHT22;58753;49.440;11.126;2023-09-30T06:55:57;14.73;91.34
71096;DHT22;58753;49.440;11.126;2023-09-30T06:58:22;14.77;91.37
71096;DHT22;58753;49.440;11.126;2023-09-30T07:00:50;14.83;91.30
71096;DHT22;58753;49.440;11.126;2023-09-30T07:03:16;14.93;91.42
71096;DHT22;58753;49.440;11.126;2023-09-30T07:05:41;14.92;90.99
71096;DHT22;58753;49.440;11.126;2023-09-30T07:08:08;14.93;91.10
71096;DHT22;58753;49.440;11.126;2023-09-30T07:10:33;14.94;90.92
71096;DHT22;58753;49.440;11.126;2023-09-30T07:13:02;14.93;90.94
71096;DHT22;58753;49.440;11.126;2023-09-30T07:15:27;14.93;90.88
71096;DHT22;58753;49.440;11.126;2023-09-30T07:17:53;14.94;91.08
71096;DHT22;58753;49.440;11.126;2023-09-30T07:20:18;14.99;90.90
71096;DHT22;58753;49.440;11.126;2023-09-30T07:22:45;15.02;90.81
71096;DHT22;58753;49.440;11.126;2023-09-30T07:25:10;15.03;90.61
71096;DHT22;58753;49.440;11.126;2023-09-30T07:27:35;15.02;90.67
71096;DHT22;58753;49.440;11.126;2023-09-30T07:30:01;15.02;90.69
71096;DHT22;58753;49.440;11.126;2023-09-30T07:32:28;15.04;90.75
71096;DHT22;58753;49.440;11.126;2023-09-30T07:34:54;15.02;90.60
71096;DHT22;58753;49.440;11.126;2023-09-30T07:37:20;14.97;90.32
71096;DHT22;58753;49.440;11.126;2023-09-30T07:39:45;14.96;90.08
71096;DHT22;58753;49.440;11.126;2023-09-30T07:42:11;14.94;90.18
71096;DHT22;58753;49.440;11.126;2023-09-30T07:44:37;14.94;90.15
71096;DHT22;58753;49.440;11.126;2023-09-30T07:47:05;14.96;90.37
71096;DHT22;58753;49.440;11.126;2023-09-30T07:49:32;14.97;90.29
71096;DHT22;58753;49.440;11.126;2023-09-30T07:51:58;15.02;90.29
71096;DHT22;58753;49.440;11.126;2023-09-30T07:54:23;15.03;90.33
71096;DHT22;58753;49.440;11.126;2023-09-30T07:56:49;15.03;89.88
71096;DHT22;58753;49.440;11.126;2023-09-30T07:59:14;15.00;89.75
71096;DHT22;58753;49.440;11.126;2023-09-30T08:01:41;14.97;89.62
71096;DHT22;58753;49.440;11.126;2023-09-30T08:04:06;14.97;89.63
71096;DHT22;58753;49.440;11.126;2023-09-30T08:06:38;14.99;89.49
71096;DHT22;58753;49.440;11.126;2023-09-30T08:09:05;15.03;89.83
71096;DHT22;58753;49.440;11.126;2023-09-30T08:11:35;15.04;89.33
71096;DHT22;58753;49.440;11.126;2023-09-30T08:14:03;15.03;88.99
71096;DHT22;58753;49.440;11.126;2023-09-30T08:16:32;15.07;89.10
71096;DHT22;58753;49.440;11.126;2023-09-30T08:18:58;15.14;89.29
71096;DHT22;58753;49.440;11.126;2023-09-30T08:21:23;15.22;89.15
71096;DHT22;58753;49.440;11.126;2023-09-30T08:23:48;15.26;88.70
71096;DHT22;58753;49.440;11.126;2023-09-30T08:26:14;15.31;88.68
71096;DHT22;58753;49.440;11.126;2023-09-30T08:28:39;15.38;88.41
71096;DHT22;58753;49.440;11.126;2023-09-30T08:31:05;15.44;88.26
71096;DHT22;58753;49.440;11.126;2023-09-30T08:33:32;15.50;87.89
71096;DHT22;58753;49.440;11.126;2023-09-30T08:36:03;15.54;87.79
71096;DHT22;58753;49.440;11.126;2023-09-30T08:38:33;15.65;87.93
71096;DHT22;58753;49.440;11.126;2023-09-30T08:40:59;15.74;87.52
71096;DHT22;58753;49.440;11.126;2023-09-30T08:43:25;15.74;86.84
71096;DHT22;58753;49.440;11.126;2023-09-30T08:45:56;15.75;87.02
71096;DHT22;58753;49.440;11.126;2023-09-30T08:48:23;15.78;86.78
71096;DHT22;58753;49.440;11.126;2023-09-30T08:50:51;15.87;86.92
71096;DHT22;58753;49.440;11.126;2023-09-30T08:53:16;15.91;86.47
71096;DHT22;58753;49.440;11.126;2023-09-30T08:55:43;15.91;86.32
71096;DHT22;58753;49.440;11.126;2023-09-30T08:58:12;16.01;85.88
71096;DHT22;58753;49.440;11.126;2023-09-30T09:00:38;16.06;86.06
71096;DHT22;58753;49.440;11.126;2023-09-30T09:03:05;16.10;85.47
71096;DHT22;58753;49.440;11.126;2023-09-30T09:05:31;16.13;85.54
71096;DHT22;58753;49.440;11.126;2023-09-30T09:07:57;16.20;85.39
71096;DHT22;58753;49.440;11.126;2023-09-30T09:10:22;16.25;84.82
71096;DHT22;58753;49.440;11.126;2023-09-30T09:12:55;16.22;84.27
71096;DHT22;58753;49.440;11.126;2023-09-30T09:15:27;16.25;83.93
71096;DHT22;58753;49.440;11.126;2023-09-30T09:17:56;16.29;83.98
71096;DHT22;58753;49.440;11.126;2023-09-30T09:20:24;16.30;83.67
71096;DHT22;58753;49.440;11.126;2023-09-30T09:22:52;16.32;83.36
71096;DHT22;58753;49.440;11.126;2023-09-30T09:25:23;16.30;83.05
71096;DHT22;58753;49.440;11.126;2023-09-30T09:27:49;16.38;82.91
71096;DHT22;58753;49.440;11.126;2023-09-30T09:33:01;16.43;82.37
71096;DHT22;58753;49.440;11.126;2023-09-30T09:35:28;16.45;82.00
71096;DHT22;58753;49.440;11.126;2023-09-30T09:37:59;16.49;81.72
71096;DHT22;58753;49.440;11.126;2023-09-30T09:40:27;16.61;81.77
71096;DHT22;58753;49.440;11.126;2023-09-30T09:42:54;16.64;80.52
71096;DHT22;58753;49.440;11.126;2023-09-30T09:45:22;16.69;80.34
71096;DHT22;58753;49.440;11.126;2023-09-30T09:47:48;16.74;80.25
71096;DHT22;58753;49.440;11.126;2023-09-30T09:50:14;16.87;80.37
71096;DHT22;58753;49.440;11.126;2023-09-30T09:52:41;16.94;79.85
71096;DHT22;58753;49.440;11.126;2023-09-30T09:55:10;16.93;79.23
71096;DHT22;58753;49.440;11.126;2023-09-30T09:57:36;16.91;78.70
71096;DHT22;58753;49.440;11.126;2023-09-30T10:00:01;16.85;77.92
71096;DHT22;58753;49.440;11.126;2023-09-30T10:02:30;16.88;78.10
71096;DHT22;58753;49.440;11.126;2023-09-30T10:04:57;16.91;78.09
71096;DHT22;58753;49.440;11.126;2023-09-30T10:07:29;16.97;77.77
71096;DHT22;58753;49.440;11.126;2023-09-30T10:09:58;17.01;77.36
71096;DHT22;58753;49.440;11.126;2023-09-30T10:12:25;17.08;76.91
71096;DHT22;58753;49.440;11.126;2023-09-30T10:14:52;17.17;76.68
71096;DHT22;58753;49.440;11.126;2023-09-30T10:17:17;17.24;76.31
71096;DHT22;58753;49.440;11.126;2023-09-30T10:20:05;17.27;75.58
71096;DHT22;58753;49.440;11.126;2023-09-30T10:22:32;17.28;74.86
71096;DHT22;58753;49.440;11.126;2023-09-30T10:24:58;17.34;74.42
71096;DHT22;58753;49.440;11.126;2023-09-30T10:30:05;17.36;73.87
71096;DHT22;58753;49.440;11.126;2023-09-30T10:35:19;17.39;71.69
71096;DHT22;58753;49.440;11.126;2023-09-30T10:37:46;17.38;71.96
71096;DHT22;58753;49.440;11.126;2023-09-30T10:40:26;17.39;71.74
71096;DHT22;58753;49.440;11.126;2023-09-30T10:42:52;17.36;71.75
71096;DHT22;58753;49.440;11.126;2023-09-30T10:50:51;17.56;71.97
71096;DHT22;58753;49.440;11.126;2023-09-30T10:53:18;17.64;71.76
71096;DHT22;58753;49.440;11.126;2023-09-30T10:55:47;17.78;72.00
71096;DHT22;58753;49.440;11.126;2023-09-30T10:58:16;17.87;71.60
71096;DHT22;58753;49.440;11.126;2023-09-30T11:00:54;17.99;71.10
71096;DHT22;58753;49.440;11.126;2023-09-30T11:03:21;18.17;70.62
71096;DHT22;58753;49.440;11.126;2023-09-30T11:05:50;18.25;69.47
71096;DHT22;58753;49.440;11.126;2023-09-30T11:08:21;18.27;69.45
71096;DHT22;58753;49.440;11.126;2023-09-30T11:10:51;18.27;68.76
71096;DHT22;58753;49.440;11.126;2023-09-30T11:13:18;18.25;68.20
71096;DHT22;58753;49.440;11.126;2023-09-30T11:15:44;18.26;67.93
71096;DHT22;58753;49.440;11.126;2023-09-30T11:18:14;18.27;67.70
71096;DHT22;58753;49.440;11.126;2023-09-30T11:20:41;18.33;68.08
71096;DHT22;58753;49.440;11.126;2023-09-30T11:23:07;18.34;67.92
71096;DHT22;58753;49.440;11.126;2023-09-30T11:25:36;18.34;67.81
71096;DHT22;58753;49.440;11.126;2023-09-30T11:30:56;18.25;65.88
71096;DHT22;58753;49.440;11.126;2023-09-30T11:33:22;18.30;65.59
71096;DHT22;58753;49.440;11.126;2023-09-30T11:36:01;18.29;64.61
71096;DHT22;58753;49.440;11.126;2023-09-30T11:38:30;18.25;64.57
71096;DHT22;58753;49.440;11.126;2023-09-30T11:41:04;18.25;63.85
71096;DHT22;58753;49.440;11.126;2023-09-30T11:43:32;18.29;64.27
71096;DHT22;58753;49.440;11.126;2023-09-30T11:48:31;18.38;63.65
71096;DHT22;58753;49.440;11.126;2023-09-30T11:50:59;18.40;63.15
71096;DHT22;58753;49.440;11.126;2023-09-30T11:53:26;18.53;63.36
71096;DHT22;58753;49.440;11.126;2023-09-30T11:55:52;18.54;62.58
71096;DHT22;58753;49.440;11.126;2023-09-30T11:58:21;18.64;62.54
71096;DHT22;58753;49.440;11.126;2023-09-30T12:00:47;18.68;61.98
71096;DHT22;58753;49.440;11.126;2023-09-30T12:03:16;18.65;61.27
71096;DHT22;58753;49.440;11.126;2023-09-30T12:05:41;18.65;61.38
71096;DHT22;58753;49.440;11.126;2023-09-30T12:08:09;18.74;61.13
71096;DHT22;58753;49.440;11.126;2023-09-30T12:10:36;18.78;60.99
71096;DHT22;58753;49.440;11.126;2023-09-30T12:13:01;18.88;60.84
71096;DHT22;58753;49.440;11.126;2023-09-30T12:15:27;18.90;60.66
71096;DHT22;58753;49.440;11.126;2023-09-30T12:17:52;19.01;60.69
71096;DHT22;58753;49.440;11.126;2023-09-30T12:20:17;19.10;60.45
71096;DHT22;58753;49.440;11.126;2023-09-30T12:22:43;19.28;60.35
71096;DHT22;58753;49.440;11.126;2023-09-30T12:25:08;19.52;59.90
71096;DHT22;58753;49.440;11.126;2023-09-30T12:27:34;19.82;58.99
71096;DHT22;58753;49.440;11.126;2023-09-30T12:29:59;20.09;58.81
71096;DHT22;58753;49.440;11.126;2023-09-30T12:32:25;20.17;58.15
71096;DHT22;58753;49.440;11.126;2023-09-30T12:34:53;20.26;57.71
71096;DHT22;58753;49.440;11.126;2023-09-30T12:37:18;20.41;57.49
71096;DHT22;58753;49.440;11.126;2023-09-30T12:39:44;20.55;56.95
71096;DHT22;58753;49.440;11.126;2023-09-30T12:42:10;20.67;56.73
71096;DHT22;58753;49.440;11.126;2023-09-30T12:44:38;20.68;56.12
71096;DHT22;58753;49.440;11.126;2023-09-30T12:47:04;20.71;56.22
71096;DHT22;58753;49.440;11.126;2023-09-30T12:49:30;20.78;55.57
71096;DHT22;58753;49.440;11.126;2023-09-30T12:51:56;20.71;55.06
71096;DHT22;58753;49.440;11.126;2023-09-30T12:54:24;20.71;55.73
71096;DHT22;58753;49.440;11.126;2023-09-30T12:56:49;20.71;55.88
71096;DHT22;58753;49.440;11.126;2023-09-30T12:59:16;20.82;55.92
71096;DHT22;58753;49.440;11.126;2023-09-30T13:01:43;20.88;55.24
71096;DHT22;58753;49.440;11.126;2023-09-30T13:04:09;20.85;54.85
71096;DHT22;58753;49.440;11.126;2023-09-30T13:06:35;20.71;53.85
71096;DHT22;58753;49.440;11.126;2023-09-30T13:09:01;20.72;54.58
71096;DHT22;58753;49.440;11.126;2023-09-30T13:11:29;20.63;53.61
71096;DHT22;58753;49.440;11.126;2023-09-30T13:13:54;20.65;54.33
71096;DHT22;58753;49.440;11.126;2023-09-30T13:16:20;20.67;53.84
71096;DHT22;58753;49.440;11.126;2023-09-30T13:18:47;20.68;54.12
71096;DHT22;58753;49.440;11.126;2023-09-30T13:21:13;20.77;54.31
71096;DHT22;58753;49.440;11.126;2023-09-30T13:23:39;20.81;53.55
71096;DHT22;58753;49.440;11.126;2023-09-30T13:26:04;20.75;53.79
71096;DHT22;58753;49.440;11.126;2023-09-30T13:28:30;20.79;54.08
71096;DHT22;58753;49.440;11.126;2023-09-30T13:30:55;20.84;53.93
71096;DHT22;58753;49.440;11.126;2023-09-30T13:33:21;20.89;53.82
71096;DHT22;58753;49.440;11.126;2023-09-30T13:35:46;20.88;52.75
71096;DHT22;58753;49.440;11.126;2023-09-30T13:38:12;20.89;53.27
71096;DHT22;58753;49.440;11.126;2023-09-30T13:40:37;20.96;53.46
71096;DHT22;58753;49.440;11.126;2023-09-30T13:43:05;21.05;53.70
71096;DHT22;58753;49.440;11.126;2023-09-30T13:45:30;20.99;52.59
71096;DHT22;58753;49.440;11.126;2023-09-30T13:47:56;21.15;52.98
71096;DHT22;58753;49.440;11.126;2023-09-30T13:50:21;21.35;53.21
71096;DHT22;58753;49.440;11.126;2023-09-30T13:52:46;21.59;53.02
71096;DHT22;58753;49.440;11.126;2023-09-30T13:55:12;21.62;52.67
71096;DHT22;58753;49.440;11.126;2023-09-30T13:57:44;21.63;51.13
71096;DHT22;58753;49.440;11.126;2023-09-30T14:00:11;21.47;51.35
71096;DHT22;58753;49.440;11.126;2023-09-30T14:02:37;21.38;51.29
71096;DHT22;58753;49.440;11.126;2023-09-30T14:05:04;21.23;51.77
71096;DHT22;58753;49.440;11.126;2023-09-30T14:07:29;21.08;51.49
71096;DHT22;58753;49.440;11.126;2023-09-30T14:09:55;21.06;52.25
71096;DHT22;58753;49.440;11.126;2023-09-30T14:12:20;20.99;51.86
71096;DHT22;58753;49.440;11.126;2023-09-30T14:14:47;20.96;51.86
71096;DHT22;58753;49.440;11.126;2023-09-30T14:17:12;21.03;51.77
71096;DHT22;58753;49.440;11.126;2023-09-30T14:19:40;20.92;50.53
71096;DHT22;58753;49.440;11.126;2023-09-30T14:22:06;20.77;51.73
71096;DHT22;58753;49.440;11.126;2023-09-30T14:24:34;20.72;52.36
71096;DHT22;58753;49.440;11.126;2023-09-30T14:27:00;20.51;51.51
71096;DHT22;58753;49.440;11.126;2023-09-30T14:29:25;20.23;51.77
71096;DHT22;58753;49.440;11.126;2023-09-30T14:31:51;20.33;52.47
71096;DHT22;58753;49.440;11.126;2023-09-30T14:34:19;20.48;52.41
71096;DHT22;58753;49.440;11.126;2023-09-30T14:36:45;20.49;52.38
71096;DHT22;58753;49.440;11.126;2023-09-30T14:39:11;20.47;52.31
71096;DHT22;58753;49.440;11.126;2023-09-30T14:41:36;20.45;52.53
71096;DHT22;58753;49.440;11.126;2023-09-30T14:44:02;20.36;52.18
71096;DHT22;58753;49.440;11.126;2023-09-30T14:46:35;20.34;52.52
71096;DHT22;58753;49.440;11.126;2023-09-30T14:49:01;20.20;52.70
71096;DHT22;58753;49.440;11.126;2023-09-30T14:51:26;20.06;52.81
71096;DHT22;58753;49.440;11.126;2023-09-30T14:53:52;20.06;53.40
71096;DHT22;58753;49.440;11.126;2023-09-30T14:56:18;19.96;53.43
71096;DHT22;58753;49.440;11.126;2023-09-30T14:58:44;19.89;54.00
71096;DHT22;58753;49.440;11.126;2023-09-30T15:01:10;19.80;54.32
71096;DHT22;58753;49.440;11.126;2023-09-30T15:03:36;19.69;54.64
71096;DHT22;58753;49.440;11.126;2023-09-30T15:06:04;19.61;54.68
71096;DHT22;58753;49.440;11.126;2023-09-30T15:08:31;19.49;54.95
71096;DHT22;58753;49.440;11.126;2023-09-30T15:11:00;19.38;55.12
71096;DHT22;58753;49.440;11.126;2023-09-30T15:13:26;19.29;55.33
71096;DHT22;58753;49.440;11.126;2023-09-30T15:15:52;19.23;55.90
71096;DHT22;58753;49.440;11.126;2023-09-30T15:18:18;19.21;56.35
71096;DHT22;58753;49.440;11.126;2023-09-30T15:20:43;19.15;56.28
71096;DHT22;58753;49.440;11.126;2023-09-30T15:23:10;19.12;56.37
71096;DHT22;58753;49.440;11.126;2023-09-30T15:25:40;19.07;56.56
71096;DHT22;58753;49.440;11.126;2023-09-30T15:28:06;19.04;56.78
71096;DHT22;58753;49.440;11.126;2023-09-30T15:30:33;18.97;57.23